Time;durP1;ratioP1;P1;durP2;ratioP2;P2;SDS_P1;SDS_P2;PMS_P1;PMS_P2;Temp;Humidity;BMP_temperature;BMP_pressure;BME280_temperature;BME280_humidity;BME280_pressure;Samples;Min_cycle;Max_cycle;Signal;HPM_P1;HPM_P2
2022/06/22 00:01:44;;;;;;;3.03;2.47;;;20.10;51.00;;;;;;5036064;28;20030;-73
2022/06/22 00:04:22;;;;;;;3.38;2.63;;;20.00;50.90;;;;;;5035240;28;20028;-74
2022/06/22 00:07:13;;;;;;;3.38;3.08;;;20.00;51.10;;;;;;5034285;28;20049;-74
2022/06/22 00:09:41;;;;;;;3.30;2.58;;;19.90;50.90;;;;;;5036157;28;20025;-74
2022/06/22 00:12:20;;;;;;;2.70;2.50;;;19.90;50.90;;;;;;5035450;28;20055;-74
2022/06/22 00:14:50;;;;;;;2.85;2.28;;;19.80;51.00;;;;;;5031433;28;20029;-74
2022/06/22 00:17:38;;;;;;;4.43;3.03;;;19.80;51.10;;;;;;5034148;28;20021;-73
2022/06/22 00:20:11;;;;;;;4.45;3.17;;;19.70;51.10;;;;;;5026271;28;20132;-74
2022/06/22 00:22:51;;;;;;;2.75;2.53;;;19.70;51.10;;;;;;5031355;28;20041;-73
2022/06/22 00:25:39;;;;;;;3.63;2.70;;;19.60;51.20;;;;;;5035361;28;20076;-74
2022/06/22 00:28:24;;;;;;;2.85;2.47;;;19.60;51.30;;;;;;5016398;28;20029;-74
2022/06/22 00:31:12;;;;;;;2.80;2.60;;;19.50;51.20;;;;;;5030794;28;20044;-73
2022/06/22 00:33:39;;;;;;;3.60;3.00;;;19.50;51.20;;;;;;5035743;28;20055;-74
2022/06/22 00:36:13;;;;;;;4.57;3.00;;;19.40;51.00;;;;;;5032728;28;20026;-73
2022/06/22 00:38:39;;;;;;;3.40;2.95;;;19.40;51.30;;;;;;5032891;28;20060;-74
2022/06/22 00:41:24;;;;;;;3.53;2.83;;;19.40;51.30;;;;;;5013790;28;20154;-73
2022/06/22 00:43:52;;;;;;;4.68;3.22;;;19.30;51.40;;;;;;5034675;28;20044;-74
2022/06/22 00:46:21;;;;;;;4.13;3.13;;;19.30;51.40;;;;;;5027898;28;20036;-74
2022/06/22 00:48:50;;;;;;;3.08;2.78;;;19.30;51.60;;;;;;5031278;28;20048;-73
2022/06/22 00:51:21;;;;;;;4.00;3.20;;;19.20;51.40;;;;;;5028596;28;20477;-73
2022/06/22 00:53:52;;;;;;;3.47;3.17;;;19.20;51.60;;;;;;5037869;28;20366;-75
2022/06/22 00:56:39;;;;;;;4.03;2.97;;;19.20;51.70;;;;;;5002609;28;20132;-74
2022/06/22 00:59:05;;;;;;;3.80;2.67;;;19.20;51.80;;;;;;5016515;28;20292;-74
2022/06/22 01:01:40;;;;;;;6.78;3.63;;;19.10;51.60;;;;;;5011749;28;20544;-75
2022/06/22 01:04:19;;;;;;;3.67;3.38;;;19.00;51.60;;;;;;5034837;28;20037;-73
2022/06/22 01:06:47;;;;;;;3.30;2.70;;;19.00;51.60;;;;;;5033690;28;20500;-73
2022/06/22 01:09:25;;;;;;;3.72;2.90;;;19.00;51.70;;;;;;5029779;28;20531;-74
2022/06/22 01:12:19;;;;;;;3.60;2.90;;;19.00;51.90;;;;;;5008933;28;20039;-74
2022/06/22 01:15:04;;;;;;;4.72;3.42;;;18.90;51.70;;;;;;5014316;28;20252;-74
2022/06/22 01:17:47;;;;;;;4.40;3.05;;;18.90;51.90;;;;;;5012399;28;20030;-74
2022/06/22 01:20:48;;;;;;;4.00;3.25;;;18.80;51.70;;;;;;5014659;28;20048;-74
2022/06/22 01:23:23;;;;;;;3.97;3.20;;;18.80;51.90;;;;;;5010573;28;20033;-75
2022/06/22 01:26:24;;;;;;;6.15;3.22;;;18.70;51.70;;;;;;5041235;28;20033;-74
2022/06/22 01:28:53;;;;;;;3.28;2.97;;;18.70;51.80;;;;;;4953789;28;20050;-74
2022/06/22 01:31:19;;;;;;;3.88;2.90;;;18.70;51.90;;;;;;5032843;28;20040;-74
2022/06/22 01:33:50;;;;;;;3.22;2.92;;;18.60;51.90;;;;;;5056986;28;20092;-74
2022/06/22 01:36:30;;;;;;;4.32;3.25;;;18.60;52.10;;;;;;5052323;28;20010;-74
2022/06/22 01:38:56;;;;;;;4.22;3.60;;;18.50;52.10;;;;;;5051852;28;20021;-75
2022/06/22 01:41:39;;;;;;;4.97;3.30;;;18.50;52.00;;;;;;5039783;28;20083;-74
2022/06/22 01:44:25;;;;;;;3.97;3.25;;;18.50;52.30;;;;;;5016991;28;20025;-74
2022/06/22 01:47:12;;;;;;;4.63;3.17;;;18.40;52.10;;;;;;5037314;28;20043;-74
2022/06/22 01:49:44;;;;;;;4.45;3.78;;;18.40;52.30;;;;;;5036767;28;20041;-75
2022/06/22 01:52:48;;;;;;;4.55;3.53;;;18.40;52.20;;;;;;5030201;28;20322;-74
2022/06/22 01:55:23;;;;;;;4.13;3.55;;;18.40;52.50;;;;;;4994095;28;20400;-74
2022/06/22 01:58:06;;;;;;;3.60;3.15;;;18.40;52.40;;;;;;5012220;28;20670;-74
2022/06/22 02:00:32;;;;;;;3.38;3.08;;;18.30;52.30;;;;;;5036085;28;20033;-73
2022/06/22 02:03:12;;;;;;;4.57;3.22;;;18.30;52.30;;;;;;5039792;28;20318;-74
2022/06/22 02:05:44;;;;;;;4.30;3.40;;;18.30;52.50;;;;;;5018943;28;20033;-73
2022/06/22 02:08:31;;;;;;;3.80;3.00;;;18.30;52.60;;;;;;5036694;28;20425;-73
2022/06/22 02:11:12;;;;;;;4.85;3.72;;;18.20;52.40;;;;;;5035382;28;20477;-74
2022/06/22 02:13:51;;;;;;;3.97;3.58;;;18.20;52.60;;;;;;5034441;28;20043;-73
2022/06/22 02:16:37;;;;;;;5.75;3.28;;;18.20;52.50;;;;;;5034506;28;20029;-73
2022/06/22 02:19:02;;;;;;;4.63;3.22;;;18.20;52.70;;;;;;5037139;28;20052;-73
2022/06/22 02:21:49;;;;;;;5.32;3.63;;;18.20;52.60;;;;;;5012835;28;20037;-75
2022/06/22 02:24:26;;;;;;;5.63;3.05;;;18.20;52.80;;;;;;5011154;28;20037;-74
2022/06/22 02:27:00;;;;;;;4.60;4.15;;;18.10;52.70;;;;;;5033903;28;20141;-74
2022/06/22 02:29:30;;;;;;;3.90;3.13;;;18.10;52.80;;;;;;5013831;28;20407;-73
2022/06/22 02:32:01;;;;;;;3.30;2.80;;;18.10;52.80;;;;;;5034722;28;20040;-73
2022/06/22 02:34:30;;;;;;;3.63;2.92;;;18.10;52.90;;;;;;5021482;28;20585;-74
2022/06/22 02:36:58;;;;;;;5.05;3.20;;;18.00;52.80;;;;;;5036076;28;20056;-74
2022/06/22 02:39:25;;;;;;;3.25;2.95;;;18.00;52.90;;;;;;5037183;28;20033;-74
2022/06/22 02:44:40;;;;;;;5.00;3.83;;;18.00;53.10;;;;;;5038621;28;20076;-74
2022/06/22 02:47:18;;;;;;;4.00;3.30;;;17.90;52.90;;;;;;5039904;28;20013;-73
2022/06/22 02:49:50;;;;;;;4.80;3.38;;;17.90;53.10;;;;;;5035149;28;20041;-74
2022/06/22 02:52:17;;;;;;;3.13;2.70;;;17.80;52.90;;;;;;5039968;28;20032;-74
2022/06/22 02:54:53;;;;;;;5.88;2.88;;;17.80;52.90;;;;;;5033505;28;20056;-74
2022/06/22 02:57:31;;;;;;;5.28;2.88;;;17.90;53.20;;;;;;5035797;28;20457;-74
2022/06/22 02:59:58;;;;;;;3.95;2.78;;;17.80;53.10;;;;;;5038649;28;20037;-73
2022/06/22 03:02:25;;;;;;;4.80;3.33;;;17.80;53.10;;;;;;5017316;28;20041;-75
2022/06/22 03:04:53;;;;;;;4.45;2.67;;;17.80;53.20;;;;;;5020522;28;20090;-74
2022/06/22 03:07:22;;;;;;;4.22;2.55;;;17.80;53.30;;;;;;5035949;28;20033;-74
2022/06/22 03:09:49;;;;;;;3.22;2.42;;;17.80;53.40;;;;;;5018209;28;20105;-73
2022/06/22 03:12:15;;;;;;;4.13;2.78;;;17.70;53.20;;;;;;5042493;28;20055;-73
2022/06/22 03:14:54;;;;;;;3.15;2.55;;;17.70;53.30;;;;;;5038890;28;20035;-74
2022/06/22 03:17:28;;;;;;;5.47;3.97;;;17.70;53.50;;;;;;5041546;28;20102;-75
2022/06/22 03:20:03;;;;;;;4.15;2.90;;;17.70;53.50;;;;;;5040864;28;20099;-74
2022/06/22 03:22:46;;;;;;;3.50;2.58;;;17.70;53.50;;;;;;5038123;28;20353;-73
2022/06/22 03:25:19;;;;;;;3.58;2.50;;;17.70;53.50;;;;;;5039260;28;20116;-73
2022/06/22 03:28:01;;;;;;;3.58;2.58;;;17.60;53.40;;;;;;5029468;28;21805;-74
2022/06/22 03:30:36;;;;;;;3.53;2.58;;;17.60;53.40;;;;;;5034191;28;20029;-74
2022/06/22 03:33:09;;;;;;;5.95;3.00;;;17.60;53.50;;;;;;5039976;28;20285;-73
2022/06/22 03:35:51;;;;;;;5.45;3.13;;;17.60;53.50;;;;;;5019618;28;20053;-74
2022/06/22 03:38:26;;;;;;;2.83;2.53;;;17.50;53.50;;;;;;5040769;28;20028;-73
2022/06/22 03:40:58;;;;;;;2.90;2.45;;;17.50;53.50;;;;;;5016198;28;20033;-74
2022/06/22 03:43:33;;;;;;;4.43;2.77;;;17.50;53.50;;;;;;5018487;28;20093;-73
2022/06/22 03:46:11;;;;;;;4.07;2.60;;;17.40;53.40;;;;;;5038499;28;20265;-72
2022/06/22 03:48:51;;;;;;;4.53;2.38;;;17.40;54.10;;;;;;5041913;28;20507;-74
2022/06/22 03:51:22;;;;;;;3.50;2.70;;;17.40;53.50;;;;;;4998879;28;21196;-74
2022/06/22 03:53:55;;;;;;;4.10;2.95;;;17.40;53.60;;;;;;5036417;28;20108;-73
2022/06/22 03:56:28;;;;;;;4.70;2.17;;;17.40;53.60;;;;;;5018210;28;20030;-75
2022/06/22 03:58:54;;;;;;;2.92;2.47;;;17.40;53.70;;;;;;5033562;28;20076;-73
2022/06/22 04:01:21;;;;;;;4.28;2.63;;;17.40;54.30;;;;;;5036235;28;20025;-73
2022/06/22 04:03:48;;;;;;;6.18;2.85;;;17.40;53.80;;;;;;5013278;28;20103;-74
2022/06/22 04:06:35;;;;;;;4.85;2.70;;;17.30;53.70;;;;;;5039585;28;20048;-74
2022/06/22 04:09:07;;;;;;;5.10;2.95;;;17.30;53.90;;;;;;5014722;28;20168;-73
2022/06/22 04:11:40;;;;;;;4.18;2.97;;;17.30;53.80;;;;;;5037021;28;20029;-74
2022/06/22 04:14:21;;;;;;;;;;;17.30;53.80;;;;;;5037871;28;20036;-75
2022/06/22 04:16:55;;;;;;;4.10;2.50;;;17.20;53.50;;;;;;5019199;28;19982;-74
2022/06/22 04:19:41;;;;;;;3.33;2.50;;;17.20;53.40;;;;;;5039755;28;20025;-74
2022/06/22 04:22:18;;;;;;;3.97;2.90;;;17.30;53.90;;;;;;5036118;28;20038;-73
2022/06/22 04:24:49;;;;;;;2.67;2.30;;;17.20;53.60;;;;;;5033293;28;20473;-74
2022/06/22 04:27:24;;;;;;;5.85;3.30;;;17.20;53.70;;;;;;5042005;28;20044;-73
2022/06/22 04:30:00;;;;;;;3.60;2.72;;;17.30;54.00;;;;;;4999029;28;20025;-73
2022/06/22 04:32:52;;;;;;;3.72;2.35;;;17.20;53.80;;;;;;5016831;28;20043;-74
2022/06/22 04:35:47;;;;;;;4.80;2.13;;;17.20;53.90;;;;;;5038609;28;20017;-73
2022/06/22 04:38:13;;;;;;;4.32;2.35;;;17.20;53.90;;;;;;5000403;28;20021;-74
2022/06/22 04:41:15;;;;;;;2.67;2.45;;;17.30;53.90;;;;;;5032270;28;20036;-74
2022/06/22 04:43:41;;;;;;;5.25;2.42;;;17.20;53.90;;;;;;5039093;28;20044;-73
2022/06/22 04:46:12;;;;;;;3.63;2.78;;;17.30;54.00;;;;;;5036233;28;20064;-73
2022/06/22 04:48:46;;;;;;;3.88;2.40;;;17.20;53.90;;;;;;5012168;28;20045;-73
2022/06/22 04:51:25;;;;;;;3.28;1.90;;;17.30;54.10;;;;;;5034149;28;20068;-73
2022/06/22 04:53:54;;;;;;;3.58;2.58;;;17.30;54.20;;;;;;5029871;28;20056;-74
2022/06/22 04:56:35;;;;;;;3.67;2.40;;;17.30;54.20;;;;;;5032403;28;20035;-74
2022/06/22 04:59:03;;;;;;;3.55;2.00;;;17.30;54.30;;;;;;5033509;28;20048;-74
2022/06/22 05:01:34;;;;;;;3.60;2.33;;;17.30;54.20;;;;;;5026475;28;20029;-73
2022/06/22 05:04:13;;;;;;;4.22;2.17;;;17.30;54.20;;;;;;5012989;28;20021;-74
2022/06/22 05:06:58;;;;;;;2.90;2.15;;;17.30;54.40;;;;;;5028183;28;20605;-74
2022/06/22 05:09:33;;;;;;;4.88;2.05;;;17.30;54.40;;;;;;5033412;28;20271;-74
2022/06/22 05:12:01;;;;;;;3.25;1.95;;;17.30;54.30;;;;;;5010479;28;20037;-73
2022/06/22 05:14:31;;;;;;;5.00;2.55;;;17.30;54.20;;;;;;5014187;28;20035;-75
2022/06/22 05:17:04;;;;;;;3.78;2.33;;;17.40;54.50;;;;;;5033745;28;20447;-73
2022/06/22 05:19:39;;;;;;;5.28;3.15;;;17.30;54.30;;;;;;5034267;28;20052;-74
2022/06/22 05:22:13;;;;;;;2.38;1.80;;;17.40;54.50;;;;;;5033858;28;20033;-74
2022/06/22 05:24:46;;;;;;;5.85;2.20;;;17.40;54.50;;;;;;5032928;28;20060;-74
2022/06/22 05:27:19;;;;;;;;;;;17.40;54.40;;;;;;5033414;28;20025;-75
2022/06/22 05:29:51;;;;;;;3.78;2.35;;;17.50;54.40;;;;;;5030277;28;19962;-74
2022/06/22 05:32:49;;;;;;;4.40;2.47;;;17.50;54.30;;;;;;5031130;28;20587;-73
2022/06/22 05:35:23;;;;;;;3.88;2.10;;;17.60;54.60;;;;;;5028201;28;20367;-73
2022/06/22 05:37:52;;;;;;;4.53;2.22;;;17.50;54.20;;;;;;5028520;28;20044;-73
2022/06/22 05:40:27;;;;;;;2.58;2.00;;;17.60;55.00;;;;;;5030698;28;20033;-75
2022/06/22 05:42:55;;;;;;;3.00;2.30;;;17.60;54.40;;;;;;5036175;28;20463;-74
2022/06/22 05:45:46;;;;;;;2.17;1.98;;;17.70;54.60;;;;;;5036757;28;20080;-74
2022/06/22 05:48:19;;;;;;;3.63;2.38;;;17.70;54.70;;;;;;5014035;28;20041;-74
2022/06/22 05:50:55;;;;;;;4.90;2.90;;;17.80;54.80;;;;;;5009912;28;20040;-78
2022/06/22 05:53:47;;;;;;;2.25;2.05;;;17.80;54.80;;;;;;5029040;28;20018;-75
2022/06/22 05:56:22;;;;;;;4.28;2.22;;;17.80;54.70;;;;;;5031264;28;20017;-75
2022/06/22 05:58:54;;;;;;;3.47;2.13;;;17.90;54.90;;;;;;5028889;28;20026;-74
2022/06/22 06:01:48;;;;;;;2.60;1.95;;;18.00;55.00;;;;;;5037239;28;20483;-74
2022/06/22 06:04:30;;;;;;;3.17;2.05;;;18.00;55.00;;;;;;5033287;28;20070;-74
2022/06/22 06:07:03;;;;;;;5.53;2.63;;;18.10;55.00;;;;;;5017889;28;20029;-74
2022/06/22 06:09:31;;;;;;;3.78;2.10;;;18.20;55.10;;;;;;5029655;28;20025;-74
2022/06/22 06:12:08;;;;;;;2.63;2.10;;;18.30;55.10;;;;;;5024077;28;20030;-75
2022/06/22 06:14:39;;;;;;;2.58;1.67;;;18.40;55.10;;;;;;5029258;28;20025;-74
2022/06/22 06:17:10;;;;;;;3.13;2.10;;;18.60;55.20;;;;;;5034343;28;20021;-74
2022/06/22 06:19:39;;;;;;;3.35;2.17;;;18.70;55.20;;;;;;5030833;28;20428;-76
2022/06/22 06:22:06;;;;;;;3.45;1.55;;;18.90;55.30;;;;;;5026979;28;20202;-75
2022/06/22 06:27:34;;;;;;;6.75;2.55;;;19.10;55.40;;;;;;5036537;28;20053;-75
2022/06/22 06:27:38;;;;;;;2.50;1.80;;;19.30;55.50;;;;;;5031937;28;20025;-74
2022/06/22 06:30:46;;;;;;;2.80;1.70;;;19.50;55.40;;;;;;5025955;28;20035;-75
2022/06/22 06:33:27;;;;;;;2.03;1.60;;;19.90;55.70;;;;;;4940210;28;20070;-75
2022/06/22 06:35:59;;;;;;;2.33;1.75;;;20.30;55.60;;;;;;5022161;28;20115;-75
2022/06/22 06:38:38;;;;;;;3.27;1.77;;;20.80;55.70;;;;;;5026929;28;20080;-75
2022/06/22 06:41:07;;;;;;;2.97;1.50;;;21.50;55.20;;;;;;5031645;28;20033;-75
2022/06/22 06:44:08;;;;;;;2.20;1.90;;;22.20;55.00;;;;;;5024431;28;20432;-76
2022/06/22 06:47:03;;;;;;;2.63;2.05;;;22.90;54.70;;;;;;5016170;28;20087;-75
2022/06/22 06:49:57;;;;;;;3.30;1.98;;;23.60;54.30;;;;;;5031414;28;20095;-76
2022/06/22 06:52:37;;;;;;;;;;;24.40;54.40;;;;;;5023678;28;20111;-74
2022/06/22 06:55:06;;;;;;;2.97;1.58;;;25.00;54.20;;;;;;5027120;28;19917;-74
2022/06/22 06:57:34;;;;;;;1.90;1.60;;;25.60;53.40;;;;;;5031577;28;20317;-75
2022/06/22 07:00:04;;;;;;;2.35;1.38;;;26.10;52.80;;;;;;5032711;28;20603;-75
2022/06/22 07:02:38;;;;;;;4.38;2.03;;;26.60;52.20;;;;;;5029218;28;20064;-76
2022/06/22 07:05:13;;;;;;;2.53;1.67;;;27.10;51.60;;;;;;5010577;28;20026;-75
2022/06/22 07:07:54;;;;;;;2.20;1.67;;;27.60;51.00;;;;;;5012889;28;20025;-74
2022/06/22 07:10:28;;;;;;;2.65;1.58;;;28.20;50.40;;;;;;5034170;28;20579;-74
2022/06/22 07:12:58;;;;;;;1.85;1.20;;;28.60;49.90;;;;;;5032523;28;20052;-76
2022/06/22 07:15:46;;;;;;;3.97;2.08;;;29.10;50.00;;;;;;5033130;28;20017;-76
2022/06/22 07:18:40;;;;;;;2.50;1.40;;;29.50;48.70;;;;;;5036059;28;20459;-75
2022/06/22 07:21:15;;;;;;;2.38;1.30;;;29.90;48.20;;;;;;5037568;28;20364;-75
2022/06/22 07:23:41;;;;;;;1.63;1.30;;;30.00;48.20;;;;;;5040808;28;20037;-74
2022/06/22 07:26:34;;;;;;;1.70;1.23;;;30.10;48.40;;;;;;5040249;28;20040;-74
2022/06/22 07:29:04;;;;;;;;;;;30.20;48.10;;;;;;5025276;28;20033;-75
2022/06/22 07:31:47;;;;;;;2.72;1.50;;;30.30;48.50;;;;;;5018033;28;19920;-75
2022/06/22 07:34:29;;;;;;;2.05;1.40;;;30.70;48.00;;;;;;5021652;28;20045;-74
2022/06/22 07:37:00;;;;;;;4.07;2.33;;;31.30;47.10;;;;;;5029718;28;20359;-74
2022/06/22 07:39:46;;;;;;;1.65;1.30;;;31.80;46.30;;;;;;5031497;28;20017;-75
2022/06/22 07:42:12;;;;;;;3.25;1.60;;;32.40;45.00;;;;;;5035795;28;20037;-77
2022/06/22 07:44:39;;;;;;;1.45;1.20;;;32.90;44.60;;;;;;5043731;28;20033;-75
2022/06/22 07:47:25;;;;;;;2.85;1.98;;;33.30;43.80;;;;;;5029066;28;20032;-75
2022/06/22 07:49:57;;;;;;;1.33;1.13;;;33.70;42.70;;;;;;5042987;28;20500;-74
2022/06/22 07:52:27;;;;;;;2.03;1.48;;;34.20;42.40;;;;;;5024916;28;20025;-74
2022/06/22 07:55:02;;;;;;;1.40;1.23;;;34.70;41.80;;;;;;5042667;28;20025;-75
2022/06/22 07:57:47;;;;;;;1.20;1.10;;;35.10;41.00;;;;;;5035983;28;20428;-74
2022/06/22 08:00:19;;;;;;;1.38;1.20;;;35.60;40.30;;;;;;5010761;28;20026;-76
2022/06/22 08:03:01;;;;;;;2.15;1.30;;;35.90;39.80;;;;;;5018338;28;20116;-75
2022/06/22 08:05:32;;;;;;;2.40;1.25;;;36.00;39.50;;;;;;5043166;28;20391;-74
2022/06/22 08:08:15;;;;;;;2.00;1.25;;;35.70;40.00;;;;;;5025550;28;20036;-75
2022/06/22 08:10:50;;;;;;;3.53;1.85;;;35.40;40.20;;;;;;5045157;28;20355;-74
2022/06/22 08:13:31;;;;;;;1.60;0.90;;;35.00;40.90;;;;;;5043219;28;20059;-75
2022/06/22 08:16:05;;;;;;;2.38;1.55;;;34.70;41.30;;;;;;5041808;28;20039;-73
2022/06/22 08:18:31;;;;;;;2.13;1.30;;;34.40;41.70;;;;;;5036744;28;20037;-75
2022/06/22 08:20:58;;;;;;;2.22;1.20;;;34.20;41.80;;;;;;5035369;28;20339;-74
2022/06/22 08:23:32;;;;;;;2.33;1.48;;;34.10;42.00;;;;;;5039723;28;20484;-76
2022/06/22 08:26:01;;;;;;;1.88;1.05;;;33.90;42.00;;;;;;5037035;28;20040;-75
2022/06/22 08:28:30;;;;;;;1.48;1.00;;;33.80;41.90;;;;;;5041314;28;20123;-74
2022/06/22 08:30:57;;;;;;;2.38;1.65;;;33.80;42.00;;;;;;5038025;28;20155;-76
2022/06/22 08:33:36;;;;;;;2.10;1.52;;;33.70;42.00;;;;;;5022697;28;20184;-75
2022/06/22 08:36:12;;;;;;;1.73;1.17;;;33.70;42.50;;;;;;5031606;28;20213;-74
2022/06/22 08:38:50;;;;;;;3.58;1.30;;;33.70;41.90;;;;;;5026359;28;20032;-77
2022/06/22 08:41:33;;;;;;;2.38;1.42;;;33.70;41.90;;;;;;5031510;28;20049;-75
2022/06/22 08:44:17;;;;;;;2.33;1.40;;;33.70;41.80;;;;;;5031252;28;20041;-76
2022/06/22 08:46:55;;;;;;;2.10;1.20;;;33.70;41.80;;;;;;5030043;28;20017;-76
2022/06/22 08:49:45;;;;;;;1.67;1.27;;;33.70;41.70;;;;;;5039702;28;20045;-74
2022/06/22 08:52:32;;;;;;;1.67;1.30;;;33.80;41.50;;;;;;5039042;28;20079;-76
2022/06/22 08:54:58;;;;;;;2.35;1.80;;;33.80;41.40;;;;;;5028428;28;20110;-76
2022/06/22 08:57:30;;;;;;;1.40;1.05;;;33.90;41.60;;;;;;5040622;28;20021;-75
2022/06/22 08:59:59;;;;;;;1.93;1.73;;;33.90;41.30;;;;;;5039621;28;20044;-78
2022/06/22 09:02:49;;;;;;;2.45;1.27;;;34.00;41.30;;;;;;5032122;28;20403;-75
2022/06/22 09:05:53;;;;;;;2.58;1.10;;;34.10;41.20;;;;;;5031430;28;20322;-77
2022/06/22 09:08:36;;;;;;;1.40;1.10;;;34.10;41.00;;;;;;5032974;28;20098;-74
2022/06/22 09:11:26;;;;;;;2.20;1.52;;;34.30;41.10;;;;;;5020323;28;20025;-75
2022/06/22 09:14:16;;;;;;;1.70;1.60;;;34.30;40.80;;;;;;5031550;28;20029;-75
2022/06/22 09:16:48;;;;;;;2.58;1.40;;;34.40;40.90;;;;;;5030745;28;20465;-76
2022/06/22 09:19:19;;;;;;;3.72;1.50;;;34.40;40.60;;;;;;5037134;28;20301;-75
2022/06/22 09:22:05;;;;;;;3.70;1.30;;;34.50;40.60;;;;;;5037253;28;20285;-74
2022/06/22 09:24:46;;;;;;;1.65;1.13;;;34.60;40.50;;;;;;5033480;28;20083;-74
2022/06/22 09:27:17;;;;;;;1.73;0.90;;;34.70;40.40;;;;;;5038855;28;20036;-77
2022/06/22 09:30:12;;;;;;;1.17;1.00;;;34.80;40.20;;;;;;4998099;28;20044;-75
2022/06/22 09:33:05;;;;;;;1.92;1.02;;;34.90;40.10;;;;;;5021096;28;20277;-76
2022/06/22 09:35:53;;;;;;;1.60;1.38;;;35.00;40.00;;;;;;5026313;28;20033;-80
2022/06/22 09:38:59;;;;;;;1.15;1.00;;;35.10;39.90;;;;;;5042557;28;20032;-75
2022/06/22 09:41:51;;;;;;;2.17;1.35;;;35.10;39.70;;;;;;5036826;28;20025;-76
2022/06/22 09:44:35;;;;;;;2.05;1.30;;;35.20;39.70;;;;;;5039712;28;20041;-76
2022/06/22 09:47:19;;;;;;;1.02;0.90;;;35.30;39.50;;;;;;5016465;28;20055;-76
2022/06/22 09:50:00;;;;;;;1.50;1.35;;;35.40;39.50;;;;;;5034560;28;20889;-75
2022/06/22 09:52:55;;;;;;;2.30;0.95;;;35.40;39.30;;;;;;5018626;28;20120;-75
2022/06/22 09:58:42;;;;;;;1.23;1.13;;;35.60;39.20;;;;;;5014190;28;20060;-76
2022/06/22 10:01:22;;;;;;;1.70;1.33;;;35.70;39.10;;;;;;5037203;28;20132;-75
2022/06/22 10:04:09;;;;;;;1.90;1.20;;;35.80;39.00;;;;;;5044949;28;20045;-76
2022/06/22 10:06:44;;;;;;;1.10;1.00;;;35.90;39.00;;;;;;5038845;28;20032;-76
2022/06/22 10:09:25;;;;;;;1.42;0.90;;;35.90;38.80;;;;;;5038157;28;20082;-76
2022/06/22 10:12:06;;;;;;;2.22;1.30;;;36.00;38.60;;;;;;5038993;28;20534;-76
2022/06/22 10:15:02;;;;;;;1.20;1.08;;;36.10;38.50;;;;;;5038486;28;20455;-75
2022/06/22 10:18:04;;;;;;;1.17;1.02;;;36.20;38.40;;;;;;5037658;28;20530;-75
2022/06/22 10:21:14;;;;;;;1.98;1.20;;;36.30;38.30;;;;;;5036624;28;20029;-74
2022/06/22 10:24:13;;;;;;;2.38;1.30;;;36.40;38.30;;;;;;5029209;28;20049;-74
2022/06/22 10:26:57;;;;;;;1.20;1.10;;;36.60;38.20;;;;;;5037577;28;20040;-75
2022/06/22 10:30:00;;;;;;;1.40;1.27;;;36.60;38.10;;;;;;5042453;28;20033;-76
2022/06/22 10:33:03;;;;;;;2.08;1.40;;;36.70;37.90;;;;;;5040121;28;20488;-77
2022/06/22 10:35:57;;;;;;;2.97;1.70;;;36.80;37.90;;;;;;5020682;28;20033;-75
2022/06/22 10:38:26;;;;;;;2.10;1.70;;;36.80;37.60;;;;;;5041690;28;20029;-74
2022/06/22 10:47:11;;;;;;;;;;;36.80;37.50;;;;;;5032724;28;20048;-76
2022/06/22 10:49:40;;;;;;;1.85;1.45;;;36.90;37.70;;;;;;5003838;28;20349;-74
2022/06/22 10:52:15;;;;;;;3.08;1.60;;;37.00;37.60;;;;;;5036874;28;20370;-76
2022/06/22 10:55:21;;;;;;;1.70;1.23;;;37.10;37.40;;;;;;5029391;28;20033;-75
2022/06/22 10:58:05;;;;;;;1.65;1.52;;;37.20;37.10;;;;;;5027977;28;20038;-74
2022/06/22 11:00:52;;;;;;;1.50;1.20;;;37.20;37.20;;;;;;5035996;28;20467;-75
2022/06/22 11:03:52;;;;;;;1.52;1.38;;;37.00;37.30;;;;;;5030952;28;20036;-75
2022/06/22 11:06:43;;;;;;;1.73;1.20;;;36.80;37.40;;;;;;5013271;28;20651;-75
2022/06/22 11:09:37;;;;;;;1.95;1.30;;;36.70;37.50;;;;;;5014575;28;20041;-74
2022/06/22 11:12:27;;;;;;;1.60;1.50;;;36.70;37.60;;;;;;5016804;28;20041;-76
2022/06/22 11:15:08;;;;;;;4.90;2.63;;;36.70;37.60;;;;;;5037612;28;20041;-74
2022/06/22 11:18:16;;;;;;;3.55;2.60;;;36.70;37.10;;;;;;5040152;28;20025;-78
2022/06/22 11:20:45;;;;;;;6.85;3.75;;;36.40;36.60;;;;;;5026459;28;20119;-76
2022/06/22 11:23:15;;;;;;;6.13;2.90;;;36.10;36.80;;;;;;5020774;28;20605;-76
2022/06/22 11:32:21;;;;;;;6.50;3.50;;;35.00;36.50;;;;;;5038407;28;20117;-75
2022/06/22 11:35:02;;;;;;;5.90;3.00;;;34.40;36.70;;;;;;5042883;28;20571;-75
2022/06/22 11:37:42;;;;;;;5.10;3.58;;;33.90;37.00;;;;;;5041881;28;20024;-77
2022/06/22 11:40:32;;;;;;;6.13;3.78;;;33.70;37.30;;;;;;5041719;28;20049;-76
2022/06/22 11:43:14;;;;;;;7.05;3.70;;;33.50;37.30;;;;;;5026237;28;20045;-76
2022/06/22 11:46:07;;;;;;;10.38;3.83;;;33.20;37.70;;;;;;5042996;28;20032;-77
2022/06/22 11:48:42;;;;;;;6.45;3.13;;;33.20;37.80;;;;;;5026045;28;20152;-76
2022/06/22 11:51:22;;;;;;;5.85;3.45;;;33.30;37.70;;;;;;5042734;28;20032;-76
2022/06/22 11:53:54;;;;;;;7.10;3.03;;;33.30;37.70;;;;;;5030980;28;20543;-76
2022/06/22 11:56:35;;;;;;;7.53;3.65;;;33.10;37.70;;;;;;5033038;28;20061;-75
2022/06/22 11:59:22;;;;;;;4.38;3.28;;;33.00;37.80;;;;;;5020246;28;20127;-74
2022/06/22 12:02:13;;;;;;;5.95;3.60;;;32.70;38.10;;;;;;5020258;28;20060;-76
2022/06/22 12:05:12;;;;;;;8.00;3.50;;;32.40;38.40;;;;;;5019400;28;20056;-75
2022/06/22 12:07:46;;;;;;;6.93;3.50;;;32.40;38.50;;;;;;5035055;28;20033;-76
2022/06/22 12:10:37;;;;;;;7.25;3.40;;;32.60;38.50;;;;;;5018499;28;20041;-75
2022/06/22 12:13:11;;;;;;;4.38;3.85;;;32.70;38.20;;;;;;5036942;28;20029;-77
2022/06/22 12:16:02;;;;;;;4.88;3.20;;;32.80;38.10;;;;;;5021192;28;20086;-76
2022/06/22 12:18:40;;;;;;;6.15;3.35;;;32.50;38.20;;;;;;5033889;28;20447;-76
2022/06/22 12:21:20;;;;;;;4.53;3.17;;;32.40;38.40;;;;;;5019364;28;20440;-78
2022/06/22 12:24:01;;;;;;;4.97;2.85;;;32.40;38.40;;;;;;5032291;28;20029;-75
2022/06/22 12:26:54;;;;;;;5.45;3.95;;;32.50;38.40;;;;;;5014782;28;20017;-76
2022/06/22 12:29:47;;;;;;;5.78;3.10;;;32.70;38.00;;;;;;5034292;28;20036;-75
2022/06/22 12:32:30;;;;;;;6.07;3.72;;;33.00;37.70;;;;;;5035246;28;20183;-74
2022/06/22 12:35:05;;;;;;;5.47;3.22;;;33.00;37.50;;;;;;5018558;28;20037;-76
2022/06/22 12:37:56;;;;;;;7.50;3.10;;;33.10;37.50;;;;;;5028647;28;20111;-74
2022/06/22 12:40:37;;;;;;;4.55;2.75;;;33.20;37.30;;;;;;5037373;28;20040;-75
2022/06/22 12:43:22;;;;;;;4.00;2.40;;;33.50;37.10;;;;;;5015672;28;20066;-76
2022/06/22 12:45:52;;;;;;;6.93;3.72;;;33.80;36.80;;;;;;5029553;28;20104;-75
2022/06/22 12:48:40;;;;;;;6.00;3.13;;;33.80;36.50;;;;;;5018486;28;20128;-75
2022/06/22 12:52:04;;;;;;;5.43;3.03;;;33.60;36.30;;;;;;5036294;28;20030;-75
2022/06/22 12:54:33;;;;;;;4.10;2.50;;;33.30;36.50;;;;;;4938247;28;20701;-74
2022/06/22 12:57:01;;;;;;;8.20;3.63;;;33.20;36.70;;;;;;5014255;28;20025;-74
2022/06/22 12:59:47;;;;;;;5.78;2.53;;;33.10;36.70;;;;;;5035394;28;20056;-74
2022/06/22 13:02:17;;;;;;;3.67;2.45;;;33.00;36.60;;;;;;5015245;28;20037;-75
2022/06/22 13:04:46;;;;;;;4.75;2.67;;;32.90;36.80;;;;;;5033106;28;20153;-74
2022/06/22 13:07:16;;;;;;;5.03;2.85;;;32.80;37.00;;;;;;5016969;28;20029;-75
2022/06/22 13:09:43;;;;;;;6.70;3.08;;;32.80;37.00;;;;;;5035760;28;20108;-75
2022/06/22 13:12:36;;;;;;;4.63;2.95;;;32.80;36.80;;;;;;5031801;28;20059;-75
2022/06/22 13:15:41;;;;;;;3.53;2.80;;;32.70;36.80;;;;;;5010665;28;20033;-75
2022/06/22 13:18:20;;;;;;;7.72;2.92;;;32.50;37.60;;;;;;5036175;28;20452;-74
2022/06/22 13:21:04;;;;;;;4.70;2.58;;;32.70;37.00;;;;;;5011074;28;20033;-74
2022/06/22 13:23:44;;;;;;;6.20;2.83;;;33.10;36.80;;;;;;5027621;28;20099;-74
2022/06/22 13:26:55;;;;;;;3.95;2.22;;;33.50;36.30;;;;;;5030379;28;20223;-74
2022/06/22 13:29:36;;;;;;;4.15;2.40;;;33.50;36.10;;;;;;5026219;28;20030;-74
2022/06/22 13:32:06;;;;;;;3.20;2.20;;;33.30;36.70;;;;;;5030921;28;20091;-75
2022/06/22 13:34:46;;;;;;;5.53;2.90;;;33.40;36.50;;;;;;5028971;28;20390;-74
2022/06/22 13:37:40;;;;;;;4.53;2.92;;;33.70;36.20;;;;;;5031502;28;20391;-75
2022/06/22 13:40:29;;;;;;;5.07;2.55;;;34.00;35.80;;;;;;5002635;28;20104;-77
2022/06/22 13:43:13;;;;;;;3.47;2.75;;;34.40;35.40;;;;;;5011318;28;20045;-74
2022/06/22 13:46:27;;;;;;;6.45;2.40;;;34.80;35.20;;;;;;5029205;28;20509;-74
2022/06/22 13:49:33;;;;;;;2.85;2.25;;;35.20;34.80;;;;;;5026719;28;20045;-75
2022/06/22 13:52:25;;;;;;;5.35;2.45;;;35.50;34.60;;;;;;4993973;28;20033;-76
2022/06/22 13:54:51;;;;;;;;;;;35.80;34.30;;;;;;5034785;28;20041;-75
2022/06/22 13:57:34;;;;;;;4.13;2.50;;;36.00;34.50;;;;;;5032314;28;19909;-75
2022/06/22 14:00:27;;;;;;;4.60;2.80;;;36.20;34.10;;;;;;5029700;28;20059;-75
2022/06/22 14:03:21;;;;;;;3.60;2.40;;;36.50;33.80;;;;;;5032332;28;20165;-76
2022/06/22 14:06:09;;;;;;;4.28;2.88;;;36.70;33.50;;;;;;5031804;28;20033;-75
2022/06/22 14:09:08;;;;;;;4.25;2.97;;;36.90;33.30;;;;;;5034553;28;20059;-76
2022/06/22 14:12:08;;;;;;;4.40;2.75;;;37.10;33.20;;;;;;5011611;28;20032;-74